»·PEaware :: UAL498 KSFO-KSAN

UAL498 :: KSFO-KSAN

FLIGHT INFORMATION

Flight Status: Arrived
Operator:
United Airlines
More flights by this operator :: More flights under this callsign
Pilot: Vlad D. (11271)
Aircraft: MCDONNELL-DOUGLAS MD-80
(MD80)
More flights by this aircraft type
Origin: KSFO San Francisco Intl
United States
Destination: KSAN San Diego Intl-Lindbergh
United States
More flights between these airports :: More routes between these airports
Route: +OFFSH9 MCKEY LAX BAYVU4
File this flight plan on PilotEdge
Remarks: Flown with Virtual United
Altitude:
(Current/Filed)
33,000ft
Speed:
(Current/Filed)
450kts
Departed: 30-May-16 03:55 PM
Arrived: 30-May-16 05:13 PM
Distance/Time
Traveled:
388nm/1:18
Distance/Time
To Go:
Arrived

Flight Plot

Page will automatically refresh every two minutes.


Map Options




Map Legend


Flown Route
Filed Route
Departure Airport
Arrival Airport
Navaid (VOR, NDB)
Fix

Horizontal Profiles

Position Reports

Time Latitude Longitude Heading Altitude Ground
Speed
30-May-16 15:13 37.617771 -122.388860 159 19ft 0kts
30-May-16 15:14 37.617771 -122.388860 159 19ft 0kts
30-May-16 15:15 37.617771 -122.388860 159 19ft 0kts
30-May-16 15:16 37.617771 -122.388860 159 19ft 0kts
30-May-16 15:17 37.617771 -122.388860 159 19ft 0kts
30-May-16 15:18 37.617771 -122.388860 159 19ft 0kts
30-May-16 15:19 37.617771 -122.388860 159 19ft 0kts
30-May-16 15:20 37.617771 -122.388860 159 19ft 0kts
30-May-16 15:21 37.617771 -122.388860 159 19ft 0kts
30-May-16 15:22 37.617771 -122.388860 159 19ft 0kts
30-May-16 15:23 37.617771 -122.388860 159 19ft 0kts
30-May-16 15:24 37.617771 -122.388860 159 19ft 0kts
30-May-16 15:25 37.617771 -122.388860 159 19ft 0kts
30-May-16 15:26 37.617771 -122.388860 159 19ft 0kts
30-May-16 15:27 37.617771 -122.388860 159 19ft 0kts
30-May-16 15:28 37.617771 -122.388860 159 19ft 0kts
30-May-16 15:29 37.617771 -122.388860 159 19ft 0kts
30-May-16 15:30 37.617771 -122.388860 159 19ft 0kts
30-May-16 15:31 37.618030 -122.388978 158 19ft 0kts
30-May-16 15:32 37.618496 -122.389066 203 19ft 0kts
30-May-16 15:33 37.618591 -122.388991 221 19ft 0kts
30-May-16 15:34 37.618591 -122.388991 221 19ft 0kts
30-May-16 15:35 37.618591 -122.388991 221 19ft 0kts
30-May-16 15:36 37.618714 -122.390079 302 19ft 8kts
30-May-16 15:37 37.619279 -122.391289 298 19ft 0kts
30-May-16 15:38 37.619279 -122.391289 298 19ft 0kts
30-May-16 15:39 37.619279 -122.391289 298 19ft 0kts
30-May-16 15:40 37.619279 -122.391289 298 19ft 0kts
30-May-16 15:41 37.620380 -122.392260 20 19ft 8kts
30-May-16 15:42 37.622388 -122.390437 71 19ft 9kts
30-May-16 15:43 37.620854 -122.384884 118 19ft 15kts
30-May-16 15:44 37.619713 -122.382146 117 19ft 7kts
30-May-16 15:45 37.618127 -122.378164 111 19ft 16kts
30-May-16 15:46 37.616628 -122.373766 118 19ft 11kts
30-May-16 15:47 37.615338 -122.370681 117 19ft 12kts
30-May-16 15:48 37.613031 -122.366296 118 19ft 13kts
30-May-16 15:49 37.611584 -122.362862 117 19ft 8kts
30-May-16 15:50 37.610523 -122.359979 91 19ft 10kts
30-May-16 15:51 37.610880 -122.359138 34 19ft 0kts
30-May-16 15:52 37.611975 -122.359060 304 19ft 8kts
30-May-16 15:53 37.624068 -122.385715 304 878ft 148kts
30-May-16 15:54 37.648276 -122.442842 297 2699ft 231kts
30-May-16 15:55 37.643673 -122.522520 228 4575ft 260kts
30-May-16 15:56 37.601162 -122.597667 239 6383ft 268kts
30-May-16 15:57 37.561124 -122.681590 239 8188ft 287kts
30-May-16 15:58 37.491283 -122.708234 170 10064ft 293kts
30-May-16 15:59 37.403677 -122.687671 167 11934ft 337kts
30-May-16 16:00 37.310998 -122.663425 167 13737ft 346kts
30-May-16 16:01 37.215254 -122.638265 167 15547ft 357kts
30-May-16 16:02 37.133188 -122.616741 167 17058ft 367kts
30-May-16 16:03 37.014860 -122.585791 167 19024ft 381kts
30-May-16 16:04 36.928469 -122.563302 167 19779ft 383kts
30-May-16 16:05 36.822638 -122.535801 166 21283ft 394kts
30-May-16 16:06 36.713900 -122.507601 166 22780ft 405kts
30-May-16 16:07 36.601979 -122.478910 166 24281ft 416kts
30-May-16 16:08 36.487419 -122.449269 166 25782ft 426kts
30-May-16 16:09 36.386589 -122.379247 128 27318ft 426kts
30-May-16 16:10 36.310400 -122.268326 127 28650ft 419kts
30-May-16 16:11 36.233957 -122.156957 127 29971ft 429kts
30-May-16 16:12 36.155837 -122.043617 127 31292ft 437kts
30-May-16 16:13 36.076054 -121.928242 127 32615ft 446kts
30-May-16 16:14 35.994726 -121.811044 127 33064ft 450kts
30-May-16 16:15 35.913389 -121.694230 127 33066ft 449kts
30-May-16 16:16 35.831723 -121.577373 126 33028ft 452kts
30-May-16 16:17 35.749121 -121.459556 126 32982ft 456kts
30-May-16 16:18 35.666416 -121.341970 126 32969ft 456kts
30-May-16 16:19 35.584001 -121.224629 127 32973ft 453kts
30-May-16 16:20 35.501835 -121.108638 127 32973ft 445kts
30-May-16 16:21 35.429637 -120.988152 120 33005ft 435kts
30-May-16 16:22 35.361035 -120.866943 120 33032ft 431kts
30-May-16 16:23 35.292670 -120.746577 120 33036ft 431kts
30-May-16 16:24 35.224269 -120.626468 120 33035ft 430kts
30-May-16 16:25 35.155650 -120.506375 120 33039ft 430kts
30-May-16 16:26 35.087286 -120.387133 120 33049ft 428kts
30-May-16 16:27 35.020127 -120.269761 121 33058ft 428kts
30-May-16 16:28 34.951015 -120.149930 121 33045ft 431kts
30-May-16 16:29 34.881897 -120.030583 121 33017ft 434kts
30-May-16 16:30 34.811971 -119.910248 121 33007ft 435kts
30-May-16 16:31 34.742391 -119.790939 121 33012ft 430kts
30-May-16 16:32 34.673372 -119.672933 121 33015ft 428kts
30-May-16 16:33 34.604420 -119.555455 121 33015ft 428kts
30-May-16 16:34 34.535292 -119.438065 121 33017ft 428kts
30-May-16 16:35 34.466473 -119.321324 121 33026ft 429kts
30-May-16 16:36 34.396985 -119.203685 121 33024ft 429kts
30-May-16 16:37 34.327466 -119.086776 121 33015ft 429kts
30-May-16 16:38 34.257306 -118.969201 121 31738ft 433kts
30-May-16 16:39 34.186410 -118.850754 121 30018ft 439kts
30-May-16 16:40 34.115506 -118.732703 121 28234ft 426kts
30-May-16 16:41 34.048188 -118.620964 121 26414ft 399kts
30-May-16 16:42 33.985044 -118.516469 121 24608ft 378kts
30-May-16 16:43 33.919988 -118.413426 131 24029ft 402kts
30-May-16 16:44 33.843794 -118.317221 129 24015ft 400kts
30-May-16 16:45 33.768393 -118.220445 129 24014ft 402kts
30-May-16 16:46 33.692052 -118.122960 129 24005ft 402kts
30-May-16 16:47 33.615271 -118.025186 129 24000ft 402kts
30-May-16 16:48 33.538572 -117.927775 129 22412ft 393kts
30-May-16 16:49 33.464604 -117.834091 129 20747ft 383kts
30-May-16 16:50 33.392145 -117.742903 129 19234ft 375kts
30-May-16 16:51 33.321032 -117.653391 129 17533ft 368kts
30-May-16 16:52 33.250369 -117.568771 138 15826ft 356kts
30-May-16 16:53 33.172175 -117.498989 138 14279ft 343kts
30-May-16 16:54 33.096065 -117.436369 141 12743ft 320kts
30-May-16 16:55 33.023910 -117.378641 141 11230ft 310kts
30-May-16 16:56 32.954433 -117.322908 141 9643ft 297kts
30-May-16 16:57 32.886129 -117.268269 143 7960ft 295kts
30-May-16 16:58 32.819290 -117.213301 126 6995ft 289kts
30-May-16 16:59 32.795294 -117.124828 101 6842ft 285kts
30-May-16 17:00 32.776162 -117.035768 101 5496ft 271kts
30-May-16 17:01 32.758697 -116.948645 101 4988ft 271kts
30-May-16 17:02 32.742633 -116.866008 101 4984ft 250kts
30-May-16 17:03 32.690484 -116.837468 191 4995ft 236kts
30-May-16 17:04 32.655744 -116.889246 261 4647ft 220kts
30-May-16 17:05 32.665679 -116.954009 303 3646ft 212kts
30-May-16 17:06 32.685438 -117.002855 291 3005ft 179kts
30-May-16 17:07 32.702831 -117.065274 288 2434ft 157kts
30-May-16 17:08 32.712611 -117.104192 287 1729ft 128kts
30-May-16 17:09 32.722656 -117.145097 286 876ft 128kts
30-May-16 17:10 32.732071 -117.183552 288 25ft 108kts
30-May-16 17:11 32.734261 -117.194781 249 23ft 7kts
30-May-16 17:12 32.734134 -117.196391 266 23ft 9kts
30-May-16 17:13 32.732862 -117.197058 136 23ft 0kts
30-May-16 17:14 32.732862 -117.197058 136 23ft 0kts
30-May-16 17:15 32.732862 -117.197058 136 23ft 0kts
30-May-16 17:16 32.732862 -117.197058 136 23ft 0kts
30-May-16 17:17 32.732862 -117.197058 136 23ft 0kts
30-May-16 17:18 32.732862 -117.197058 136 23ft 0kts
30-May-16 17:19 32.732862 -117.197058 136 23ft 0kts
30-May-16 17:20 32.732862 -117.197058 136 23ft 0kts
30-May-16 17:21 32.732862 -117.197058 136 23ft 0kts
30-May-16 17:22 32.732862 -117.197058 136 23ft 0kts

Navigation Log

Ident Type
Flight plan parsing failed, navigation log unavailable